Huntsville, Alabama
Current Conditions -  °F | °C
As of 7:53 AM on Saturday 22 Nov 2014 (Local Time) from KHSV Reporting Station
Scattered Clouds Scattered Clouds  
Wind Chill: 50°   Ceiling: Unl
Heat Index: 50°   Visibility: 10mi
Dew Point: 31°   Wind: 13mph
Humidity: 48%   Direction: 110°ESE
Pressure: 30.38"   Gusts: NA
Location:  34.73°N, 86.58°W
Report Text: KHSV 221353Z 11011KT 10SM FEW130 SCT250 10/M01 A3038 RMK AO2 SLP289 T01001006 $
Loading
Personal Weather Stations






























Interactive Weather Map New forecast layout! Learn more

10-Day Weather Forecast

Advertisements
Track Severe Weather on mobile